createdAt,value
2022-10-14T00:01:54.883Z,13.30
2022-10-14T00:04:21.392Z,13.28
2022-10-14T00:06:47.992Z,13.23
2022-10-14T00:09:14.479Z,13.00
2022-10-14T00:11:41.292Z,13.22
2022-10-14T00:14:12.913Z,13.11
2022-10-14T00:16:41.267Z,13.11
2022-10-14T00:19:08.546Z,13.05
2022-10-14T00:21:37.799Z,12.97
2022-10-14T00:24:04.674Z,13.30
2022-10-14T00:26:34.411Z,13.25
2022-10-14T00:29:02.894Z,13.33
2022-10-14T00:31:29.918Z,13.21
2022-10-14T00:33:56.675Z,13.19
2022-10-14T00:36:25.171Z,13.07
2022-10-14T00:38:53.247Z,13.40
2022-10-14T00:41:23.236Z,13.26
2022-10-14T00:44:06.652Z,13.15
2022-10-14T00:46:36.073Z,13.25
2022-10-14T00:49:21.905Z,13.30
2022-10-14T00:52:00.914Z,13.19
2022-10-14T00:54:36.658Z,13.10
2022-10-14T00:57:04.404Z,13.08
2022-10-14T00:59:32.662Z,13.15
2022-10-14T01:01:59.381Z,12.97
2022-10-14T01:04:27.122Z,13.01
2022-10-14T01:07:12.594Z,13.16
2022-10-14T01:09:55.487Z,13.04
2022-10-14T01:12:33.704Z,13.08
2022-10-14T01:15:37.790Z,13.16
2022-10-14T01:18:16.397Z,13.18
2022-10-14T01:20:51.990Z,13.08
2022-10-14T01:23:36.745Z,13.11
2022-10-14T01:26:34.007Z,13.18
2022-10-14T01:29:14.882Z,13.25
2022-10-14T01:31:48.069Z,13.22
2022-10-14T01:34:23.838Z,13.10
2022-10-14T01:37:02.058Z,13.24
2022-10-14T01:39:33.091Z,13.08
2022-10-14T01:42:08.732Z,13.10
2022-10-14T01:44:41.115Z,13.11
2022-10-14T01:47:09.028Z,13.19
2022-10-14T01:49:44.909Z,13.13
2022-10-14T01:52:22.795Z,13.00
2022-10-14T01:54:52.716Z,13.05
2022-10-14T01:57:29.754Z,13.17
2022-10-14T01:59:58.474Z,13.14
2022-10-14T02:02:25.622Z,12.99
2022-10-14T02:04:52.384Z,13.11
2022-10-14T02:07:29.864Z,13.03
2022-10-14T02:10:05.124Z,13.15
2022-10-14T02:12:39.708Z,13.24
2022-10-14T02:16:00.454Z,13.22
2022-10-14T02:18:42.101Z,13.17
2022-10-14T02:21:33.913Z,13.38
2022-10-14T02:24:12.357Z,13.22
2022-10-14T02:26:40.549Z,13.18
2022-10-14T02:29:07.285Z,13.26
2022-10-14T02:31:36.480Z,13.35
2022-10-14T02:34:06.315Z,13.52
2022-10-14T02:36:35.570Z,13.29
2022-10-14T02:39:03.136Z,13.29
2022-10-14T02:41:37.528Z,13.35
2022-10-14T02:44:07.862Z,13.31
2022-10-14T02:46:35.481Z,13.50
2022-10-14T02:49:02.088Z,13.37
2022-10-14T02:51:28.609Z,13.27
2022-10-14T02:53:57.451Z,13.32
2022-10-14T02:56:24.268Z,13.43
2022-10-14T02:58:50.817Z,13.40
2022-10-14T03:01:17.320Z,13.46
2022-10-14T03:03:43.943Z,13.36
2022-10-14T03:06:10.558Z,13.44
2022-10-14T03:08:37.087Z,13.57
2022-10-14T03:11:03.871Z,13.44
2022-10-14T03:13:30.468Z,13.24
2022-10-14T03:15:57.031Z,13.32
2022-10-14T03:18:23.528Z,13.53
2022-10-14T03:20:50.122Z,13.43
2022-10-14T03:23:17.072Z,13.52
2022-10-14T03:25:45.046Z,13.48
2022-10-14T03:28:12.702Z,13.60
2022-10-14T03:30:39.610Z,13.44
2022-10-14T03:33:06.128Z,13.49
2022-10-14T03:35:32.672Z,13.42
2022-10-14T03:38:02.349Z,13.50
2022-10-14T03:40:30.298Z,13.53
2022-10-14T03:43:01.189Z,13.35
2022-10-14T03:45:28.610Z,13.49
2022-10-14T03:47:55.860Z,13.47
2022-10-14T03:50:22.969Z,13.57
2022-10-14T03:52:54.614Z,13.45
2022-10-14T03:55:22.445Z,13.40
2022-10-14T03:57:48.995Z,13.44
2022-10-14T04:00:16.189Z,13.29
2022-10-14T04:02:43.077Z,13.29
2022-10-14T04:05:10.449Z,13.23
2022-10-14T04:07:37.108Z,13.41
2022-10-14T04:10:04.406Z,13.44
2022-10-14T04:12:30.923Z,13.36
2022-10-14T04:14:57.500Z,13.37
2022-10-14T04:17:25.123Z,13.25
2022-10-14T04:19:52.260Z,13.52
2022-10-14T04:22:19.834Z,13.46
2022-10-14T04:24:46.580Z,13.38
2022-10-14T04:27:13.110Z,13.36
2022-10-14T04:29:39.626Z,13.33
2022-10-14T04:32:06.296Z,13.23
2022-10-14T04:34:32.844Z,13.46
2022-10-14T04:36:59.526Z,13.34
2022-10-14T04:39:26.494Z,13.35
2022-10-14T04:41:53.106Z,13.34
2022-10-14T04:44:19.686Z,13.47
2022-10-14T04:46:46.234Z,13.38
2022-10-14T04:49:12.882Z,13.29
2022-10-14T04:51:39.372Z,13.37
2022-10-14T04:54:06.443Z,13.31
2022-10-14T04:56:33.029Z,13.32
2022-10-14T04:58:59.653Z,13.25
2022-10-14T05:01:29.147Z,13.19
2022-10-14T05:03:59.622Z,13.24
2022-10-14T05:06:26.251Z,13.47
2022-10-14T05:08:52.761Z,13.39
2022-10-14T05:11:19.377Z,13.33
2022-10-14T05:13:45.968Z,13.27
2022-10-14T05:16:12.987Z,13.21
2022-10-14T05:18:39.764Z,13.19
2022-10-14T05:21:06.839Z,13.27
2022-10-14T05:23:33.315Z,13.32
2022-10-14T05:25:59.815Z,13.17
2022-10-14T05:28:26.518Z,13.32
2022-10-14T05:30:53.096Z,13.32
2022-10-14T05:33:19.661Z,13.25
2022-10-14T05:35:58.559Z,13.29
2022-10-14T05:38:25.912Z,13.17
2022-10-14T05:40:57.126Z,13.12
2022-10-14T05:43:32.020Z,13.20
2022-10-14T05:45:59.719Z,13.12
2022-10-14T05:48:26.451Z,13.22
2022-10-14T05:50:53.000Z,13.22
2022-10-14T05:53:19.561Z,13.14
2022-10-14T05:55:46.084Z,13.32
2022-10-14T05:58:12.612Z,13.20
2022-10-14T06:00:39.186Z,13.31
2022-10-14T06:03:05.743Z,13.26
2022-10-14T06:05:36.749Z,13.27
2022-10-14T06:08:03.391Z,13.31
2022-10-14T06:10:29.929Z,13.31
2022-10-14T06:12:57.308Z,13.28
2022-10-14T06:15:23.799Z,13.33
2022-10-14T06:17:50.239Z,13.36
2022-10-14T06:20:16.886Z,13.41
2022-10-14T06:22:43.760Z,13.30
2022-10-14T06:25:10.294Z,13.37
2022-10-14T06:27:37.472Z,13.23
2022-10-14T06:30:04.367Z,13.40
2022-10-14T06:32:30.898Z,13.45
2022-10-14T06:34:57.460Z,13.45
2022-10-14T06:37:23.950Z,13.41
2022-10-14T06:39:50.486Z,13.43
2022-10-14T06:42:17.079Z,13.41
2022-10-14T06:44:43.633Z,13.40
2022-10-14T06:47:10.070Z,13.35
2022-10-14T06:49:36.603Z,13.38
2022-10-14T06:52:03.358Z,13.35
2022-10-14T06:54:29.847Z,13.34
2022-10-14T06:56:56.331Z,13.33
2022-10-14T06:59:22.928Z,13.41
2022-10-14T07:01:49.494Z,13.31
2022-10-14T07:04:16.086Z,13.32
2022-10-14T07:06:42.650Z,13.25
2022-10-14T07:09:09.157Z,13.33
2022-10-14T07:11:35.595Z,13.31
2022-10-14T07:14:02.455Z,13.38
2022-10-14T07:16:29.070Z,13.55
2022-10-14T07:18:55.816Z,13.41
2022-10-14T07:21:22.400Z,13.29
2022-10-14T07:23:48.930Z,13.44
2022-10-14T07:26:15.442Z,13.55
2022-10-14T07:28:42.008Z,13.44
2022-10-14T07:31:10.584Z,13.61
2022-10-14T07:33:39.429Z,13.61
2022-10-14T07:36:10.055Z,13.38
2022-10-14T07:38:37.370Z,13.55
2022-10-14T07:41:07.201Z,13.48
2022-10-14T07:43:34.603Z,13.52
2022-10-14T07:46:04.308Z,13.52
2022-10-14T07:48:45.253Z,13.56
2022-10-14T07:51:19.704Z,13.66
2022-10-14T07:53:46.436Z,13.75
2022-10-14T07:56:12.970Z,13.72
2022-10-14T07:58:44.239Z,13.63
2022-10-14T08:01:11.144Z,13.57
2022-10-14T08:03:37.714Z,13.68
2022-10-14T08:06:05.359Z,13.70
2022-10-14T08:08:32.461Z,13.73
2022-10-14T08:11:03.240Z,13.81
2022-10-14T08:13:30.697Z,13.80
2022-10-14T08:15:57.232Z,13.78
2022-10-14T08:18:23.809Z,13.71
2022-10-14T08:20:50.437Z,13.86
2022-10-14T08:23:19.098Z,13.91
2022-10-14T08:25:49.973Z,13.86
2022-10-14T08:28:16.538Z,13.82
2022-10-14T08:30:43.111Z,13.79
2022-10-14T08:33:09.633Z,13.77
2022-10-14T08:35:36.246Z,13.87
2022-10-14T08:38:03.084Z,13.76
2022-10-14T08:40:36.951Z,13.82
2022-10-14T08:43:26.099Z,13.78
2022-10-14T08:45:58.117Z,13.81
2022-10-14T08:48:27.020Z,13.88
2022-10-14T08:51:10.165Z,13.83
2022-10-14T08:53:42.948Z,13.86
2022-10-14T08:56:12.237Z,13.98
2022-10-14T08:58:42.226Z,14.03
2022-10-14T09:01:26.981Z,14.08
2022-10-14T09:03:58.487Z,14.06
2022-10-14T09:06:27.463Z,13.88
2022-10-14T09:09:21.790Z,13.95
2022-10-14T09:11:57.097Z,13.92
2022-10-14T09:14:29.441Z,13.96
2022-10-14T09:17:09.092Z,13.93
2022-10-14T09:19:46.843Z,13.96
2022-10-14T09:22:15.366Z,13.88
2022-10-14T09:24:46.100Z,14.03
2022-10-14T09:27:17.034Z,14.13
2022-10-14T09:29:43.678Z,14.13
2022-10-14T09:32:18.923Z,14.20
2022-10-14T09:34:49.079Z,14.10
2022-10-14T09:37:32.107Z,14.30
2022-10-14T09:40:10.312Z,14.24
2022-10-14T09:43:04.611Z,14.20
2022-10-14T09:45:49.329Z,14.14
2022-10-14T09:48:31.489Z,14.11
2022-10-14T09:51:00.048Z,14.15
2022-10-14T09:53:26.587Z,14.24
2022-10-14T09:55:57.208Z,14.16
2022-10-14T09:58:47.974Z,14.16
2022-10-14T10:01:19.067Z,14.13
2022-10-14T10:03:46.707Z,14.17
2022-10-14T10:06:16.584Z,14.34
2022-10-14T10:08:55.421Z,14.20
2022-10-14T10:11:39.549Z,14.21
2022-10-14T10:14:23.801Z,14.33
2022-10-14T10:17:12.656Z,14.34
2022-10-14T10:19:44.946Z,14.34
2022-10-14T10:22:27.217Z,14.41
2022-10-14T10:25:03.477Z,14.39
2022-10-14T10:27:36.049Z,14.41
2022-10-14T10:30:25.062Z,14.36
2022-10-14T10:33:16.303Z,14.26
2022-10-14T10:36:26.390Z,14.36
2022-10-14T10:39:18.958Z,14.42
2022-10-14T10:41:54.127Z,14.48
2022-10-14T10:44:52.806Z,14.48
2022-10-14T10:47:33.417Z,14.41
2022-10-14T10:50:20.695Z,14.35
2022-10-14T10:52:53.128Z,14.42
2022-10-14T10:55:39.797Z,14.42
2022-10-14T10:58:13.643Z,14.39
2022-10-14T11:00:51.320Z,14.58
2022-10-14T11:03:20.507Z,14.54
2022-10-14T11:06:12.180Z,14.48
2022-10-14T11:09:20.340Z,14.45
2022-10-14T11:12:15.684Z,14.41
2022-10-14T11:14:54.588Z,14.37
2022-10-14T11:17:34.058Z,14.37
2022-10-14T11:20:23.066Z,14.48
2022-10-14T11:22:58.264Z,14.59
2022-10-14T11:25:45.011Z,14.55
2022-10-14T11:28:38.259Z,14.53
2022-10-14T11:31:40.972Z,14.50
2022-10-14T11:34:43.236Z,14.56
2022-10-14T11:37:28.617Z,14.56
2022-10-14T11:40:00.473Z,14.60
2022-10-14T11:42:40.333Z,14.61
2022-10-14T11:45:06.852Z,14.64
2022-10-14T11:47:38.798Z,14.60
2022-10-14T11:50:25.215Z,14.67
2022-10-14T11:53:16.995Z,14.61
2022-10-14T11:55:54.159Z,14.63
2022-10-14T11:58:24.857Z,14.56
2022-10-14T12:00:56.128Z,14.65
2022-10-14T12:03:44.386Z,14.61
2022-10-14T12:06:21.439Z,14.63
2022-10-14T12:08:55.331Z,14.71
2022-10-14T12:11:36.244Z,14.61
2022-10-14T12:14:21.563Z,14.64
2022-10-14T12:16:49.332Z,14.65
2022-10-14T12:19:26.218Z,14.74
2022-10-14T12:22:11.625Z,14.74
2022-10-14T12:24:42.224Z,14.85
2022-10-14T12:27:12.652Z,14.79
2022-10-14T12:29:45.751Z,14.70
2022-10-14T12:32:21.983Z,14.73
2022-10-14T12:34:54.192Z,14.78
2022-10-14T12:37:34.929Z,14.75
2022-10-14T12:40:07.701Z,14.83
2022-10-14T12:42:54.640Z,14.96
2022-10-14T12:45:23.458Z,15.18
2022-10-14T12:48:16.709Z,15.13
2022-10-14T12:50:44.451Z,15.15
2022-10-14T12:53:31.899Z,15.06
2022-10-14T12:56:00.869Z,15.07
2022-10-14T12:58:55.398Z,15.10
2022-10-14T13:01:22.177Z,15.14
2022-10-14T13:04:19.025Z,15.12
2022-10-14T13:10:45.854Z,15.15
2022-10-14T13:13:52.880Z,15.38
2022-10-14T13:16:25.364Z,15.37
2022-10-14T13:18:53.146Z,15.63
2022-10-14T13:21:34.781Z,15.53
2022-10-14T13:24:28.948Z,15.59
2022-10-14T13:26:55.467Z,15.67
2022-10-14T13:29:44.527Z,15.71
2022-10-14T13:32:33.430Z,15.68
2022-10-14T13:35:18.699Z,15.68
2022-10-14T13:37:58.793Z,15.70
2022-10-14T13:40:43.605Z,15.79
2022-10-14T13:43:13.255Z,16.14
2022-10-14T13:45:43.416Z,16.18
2022-10-14T13:48:16.983Z,16.16
2022-10-14T13:50:44.554Z,15.80
2022-10-14T13:53:20.816Z,15.87
2022-10-14T13:55:54.530Z,15.75
2022-10-14T13:58:24.006Z,15.65
2022-10-14T14:00:59.775Z,15.63
2022-10-14T14:03:36.904Z,15.37
2022-10-14T14:06:10.877Z,15.47
2022-10-14T14:08:46.628Z,15.45
2022-10-14T14:11:19.998Z,15.43
2022-10-14T14:13:59.041Z,15.48
2022-10-14T14:16:34.175Z,15.70
2022-10-14T14:19:09.988Z,15.92
2022-10-14T14:21:37.861Z,16.20
2022-10-14T14:24:15.737Z,16.27
2022-10-14T14:26:42.433Z,16.14
2022-10-14T14:29:18.493Z,16.14
2022-10-14T14:34:36.073Z,16.00
2022-10-14T14:37:25.118Z,15.68
2022-10-14T14:40:15.611Z,15.87
2022-10-14T14:42:44.109Z,15.72
2022-10-14T14:45:19.647Z,15.64
2022-10-14T14:47:49.152Z,15.61
2022-10-14T14:50:29.905Z,15.55
2022-10-14T14:53:02.798Z,15.72
2022-10-14T14:55:44.696Z,15.71
2022-10-14T14:58:22.808Z,15.74
2022-10-14T15:00:51.554Z,15.65
2022-10-14T15:03:18.275Z,15.61
2022-10-14T15:06:02.792Z,15.49
2022-10-14T15:08:40.562Z,15.60
2022-10-14T15:11:07.216Z,15.52
2022-10-14T15:13:39.731Z,15.38
2022-10-14T15:16:07.205Z,15.29
2022-10-14T15:18:37.420Z,15.28
2022-10-14T15:21:20.235Z,15.34
2022-10-14T15:23:49.721Z,15.33
2022-10-14T15:26:33.466Z,15.28
2022-10-14T15:29:13.559Z,15.27
2022-10-14T15:31:42.990Z,15.11
2022-10-14T15:34:22.321Z,15.20
2022-10-14T15:36:50.976Z,15.19
2022-10-14T15:39:17.656Z,15.28
2022-10-14T15:41:45.194Z,15.21
2022-10-14T15:44:12.203Z,15.14
2022-10-14T15:46:59.557Z,15.20
2022-10-14T15:49:37.077Z,15.17
2022-10-14T15:52:04.546Z,15.22
2022-10-14T15:54:31.105Z,15.26
2022-10-14T15:56:57.873Z,15.33
2022-10-14T15:59:25.696Z,15.37
2022-10-14T16:01:52.683Z,15.32
2022-10-14T16:04:24.333Z,15.29
2022-10-14T16:06:55.224Z,15.07
2022-10-14T16:09:23.372Z,14.96
2022-10-14T16:11:57.043Z,14.84
2022-10-14T16:14:27.701Z,14.83
2022-10-14T16:16:54.724Z,14.75
2022-10-14T16:19:21.399Z,14.76
2022-10-14T16:21:49.791Z,14.78
2022-10-14T16:24:21.698Z,14.64
2022-10-14T16:26:51.335Z,14.65
2022-10-14T16:29:19.610Z,14.60
2022-10-14T16:31:50.165Z,14.41
2022-10-14T16:34:22.333Z,14.44
2022-10-14T16:36:49.885Z,14.34
2022-10-14T16:39:17.745Z,14.45
2022-10-14T16:41:44.743Z,14.55
2022-10-14T16:44:24.573Z,14.63
2022-10-14T16:47:14.956Z,14.31
2022-10-14T16:49:44.556Z,14.26
2022-10-14T16:52:11.484Z,14.30
2022-10-14T16:54:38.096Z,14.33
2022-10-14T16:57:06.133Z,14.14
2022-10-14T16:59:33.002Z,14.18
2022-10-14T17:02:00.653Z,14.32
2022-10-14T17:04:27.564Z,14.03
2022-10-14T17:06:54.979Z,14.20
2022-10-14T17:09:21.614Z,13.96
2022-10-14T17:11:50.039Z,13.96
2022-10-14T17:14:18.700Z,14.06
2022-10-14T17:16:48.176Z,13.89
2022-10-14T17:19:14.688Z,13.70
2022-10-14T17:21:41.197Z,13.84
2022-10-14T17:24:07.963Z,14.05
2022-10-14T17:26:34.853Z,13.98
2022-10-14T17:29:01.801Z,14.07
2022-10-14T17:31:29.067Z,13.91
2022-10-14T17:33:56.688Z,13.98
2022-10-14T17:36:27.988Z,14.01
2022-10-14T17:38:55.568Z,13.89
2022-10-14T17:41:24.173Z,14.01
2022-10-14T17:43:51.727Z,13.72
2022-10-14T17:46:21.354Z,13.56
2022-10-14T17:49:03.732Z,13.58
2022-10-14T17:51:31.735Z,13.56
2022-10-14T17:54:02.716Z,13.60
2022-10-14T17:56:31.210Z,13.39
2022-10-14T17:58:59.902Z,13.17
2022-10-14T18:01:37.264Z,13.43
2022-10-14T18:04:10.491Z,13.41
2022-10-14T18:06:37.368Z,13.40
2022-10-14T18:09:08.867Z,13.28
2022-10-14T18:12:11.564Z,13.06
2022-10-14T18:14:28.710Z,13.15
2022-10-14T18:16:55.272Z,12.95
2022-10-14T18:19:21.857Z,13.00
2022-10-14T18:21:48.428Z,13.03
2022-10-14T18:24:15.011Z,12.90
2022-10-14T18:26:41.631Z,12.90
2022-10-14T18:29:09.226Z,12.99
2022-10-14T18:31:36.162Z,12.95
2022-10-14T18:34:03.400Z,12.90
2022-10-14T18:36:33.041Z,12.80
2022-10-14T18:39:02.327Z,12.84
2022-10-14T18:41:29.891Z,12.75
2022-10-14T18:43:59.978Z,12.74
2022-10-14T18:46:29.566Z,12.72
2022-10-14T18:48:57.417Z,12.73
2022-10-14T18:51:26.919Z,12.69
2022-10-14T18:53:58.309Z,12.80
2022-10-14T18:56:28.108Z,12.80
2022-10-14T18:59:00.055Z,12.68
2022-10-14T19:01:27.471Z,12.51
2022-10-14T19:03:54.668Z,12.52
2022-10-14T19:06:22.298Z,12.55
2022-10-14T19:08:49.531Z,12.56
2022-10-14T19:11:20.219Z,12.51
2022-10-14T19:13:51.972Z,12.40
2022-10-14T19:16:20.355Z,12.48
2022-10-14T19:18:47.422Z,12.48
2022-10-14T19:21:19.285Z,12.46
2022-10-14T19:23:46.122Z,12.49
2022-10-14T19:26:21.559Z,12.46
2022-10-14T19:28:49.827Z,12.45
2022-10-14T19:31:18.897Z,12.26
2022-10-14T19:33:46.044Z,12.36
2022-10-14T19:36:15.887Z,12.31
2022-10-14T19:38:58.250Z,12.21
2022-10-14T19:41:26.515Z,12.30
2022-10-14T19:43:53.789Z,12.32
2022-10-14T19:46:23.793Z,12.30
2022-10-14T19:48:50.331Z,12.23
2022-10-14T19:51:18.189Z,12.23
2022-10-14T19:53:44.681Z,12.49
2022-10-14T19:56:12.751Z,12.46
2022-10-14T19:58:43.953Z,12.43
2022-10-14T20:01:14.033Z,12.54
2022-10-14T20:03:41.766Z,12.25
2022-10-14T20:06:09.772Z,12.25
2022-10-14T20:08:36.714Z,12.16
2022-10-14T20:11:08.976Z,12.18
2022-10-14T20:13:37.583Z,12.24
2022-10-14T20:16:06.439Z,12.02
2022-10-14T20:18:34.034Z,12.10
2022-10-14T20:21:01.854Z,12.14
2022-10-14T20:23:28.452Z,12.12
2022-10-14T20:26:02.992Z,11.92
2022-10-14T20:28:29.557Z,11.97
2022-10-14T20:30:57.494Z,12.03
2022-10-14T20:33:24.471Z,11.93
2022-10-14T20:36:11.321Z,12.06
2022-10-14T20:38:38.950Z,12.01
2022-10-14T20:41:06.724Z,12.04
2022-10-14T20:43:33.337Z,12.06
2022-10-14T20:45:59.908Z,12.08
2022-10-14T20:48:26.464Z,11.97
2022-10-14T20:50:53.028Z,12.00
2022-10-14T20:53:19.613Z,12.07
2022-10-14T20:55:46.216Z,11.90
2022-10-14T20:58:12.834Z,11.87
2022-10-14T21:00:39.390Z,11.90
2022-10-14T21:03:06.073Z,11.87
2022-10-14T21:05:36.346Z,11.99
2022-10-14T21:08:03.659Z,11.99
2022-10-14T21:10:30.405Z,12.01
2022-10-14T21:12:57.129Z,11.95
2022-10-14T21:15:26.871Z,11.88
2022-10-14T21:17:53.678Z,11.99
2022-10-14T21:20:20.328Z,11.96
2022-10-14T21:22:46.854Z,12.02
2022-10-14T21:25:13.512Z,11.96
2022-10-14T21:27:39.982Z,11.99
2022-10-14T21:30:07.273Z,11.95
2022-10-14T21:32:33.847Z,12.02
2022-10-14T21:35:00.324Z,11.98
2022-10-14T21:37:26.856Z,11.94
2022-10-14T21:39:53.387Z,11.92
2022-10-14T21:42:20.040Z,11.96
2022-10-14T21:44:46.739Z,12.07
2022-10-14T21:47:13.288Z,12.12
2022-10-14T21:49:39.868Z,12.18
2022-10-14T21:52:06.561Z,12.10
2022-10-14T21:54:33.112Z,12.05
2022-10-14T21:56:59.659Z,12.09
2022-10-14T21:59:26.197Z,12.11
2022-10-14T22:01:56.512Z,12.11
2022-10-14T22:04:23.137Z,12.16
2022-10-14T22:06:50.207Z,12.20
2022-10-14T22:09:16.766Z,12.25
2022-10-14T22:11:43.332Z,12.14
2022-10-14T22:14:17.575Z,12.18
2022-10-14T22:16:45.485Z,12.14
2022-10-14T22:19:13.345Z,12.12
2022-10-14T22:21:41.968Z,12.08
2022-10-14T22:24:09.284Z,12.25
2022-10-14T22:26:36.086Z,12.32
2022-10-14T22:29:11.966Z,12.41
2022-10-14T22:31:38.667Z,12.32
2022-10-14T22:34:06.710Z,12.50
2022-10-14T22:36:34.741Z,12.38
2022-10-14T22:39:06.066Z,12.34
2022-10-14T22:41:35.729Z,12.41
2022-10-14T22:44:05.001Z,12.51
2022-10-14T22:46:33.887Z,12.42
2022-10-14T22:49:01.894Z,12.49
2022-10-14T22:51:31.177Z,12.56
2022-10-14T22:53:57.763Z,12.53
2022-10-14T22:56:26.882Z,12.46
2022-10-14T22:58:54.737Z,12.46
2022-10-14T23:01:22.598Z,12.43
2022-10-14T23:03:49.779Z,12.33
2022-10-14T23:06:16.683Z,12.36
2022-10-14T23:08:43.685Z,12.38
2022-10-14T23:11:15.276Z,12.41
2022-10-14T23:13:42.269Z,12.36
2022-10-14T23:16:14.005Z,12.32
2022-10-14T23:21:33.901Z,12.42
2022-10-14T23:24:03.326Z,12.23
2022-10-14T23:26:31.686Z,12.25
2022-10-14T23:28:59.279Z,12.21
2022-10-14T23:31:31.378Z,12.18
2022-10-14T23:33:59.483Z,12.11
2022-10-14T23:36:27.257Z,12.13
2022-10-14T23:38:54.140Z,12.11
2022-10-14T23:41:22.490Z,12.12
2022-10-14T23:43:49.947Z,12.13
2022-10-14T23:46:17.017Z,12.18
2022-10-14T23:48:47.974Z,12.09
2022-10-14T23:51:22.299Z,12.10
2022-10-14T23:53:48.836Z,12.17
2022-10-14T23:56:15.403Z,12.17
2022-10-14T23:58:41.922Z,12.20
